createdAt,value
2019-02-17T00:00:53.158Z,126.25
2019-02-17T00:03:22.967Z,77.97
2019-02-17T00:05:52.718Z,65.50
2019-02-17T00:08:22.632Z,57.62
2019-02-17T00:10:52.436Z,54.42
2019-02-17T00:13:22.268Z,53.25
2019-02-17T00:15:52.179Z,44.25
2019-02-17T00:18:21.984Z,45.20
2019-02-17T00:20:51.787Z,45.43
2019-02-17T00:23:21.524Z,43.83
2019-02-17T00:25:51.358Z,45.95
2019-02-17T00:28:21.193Z,41.50
2019-02-17T00:30:51.124Z,42.38
2019-02-17T00:33:21.046Z,47.17
2019-02-17T00:35:50.835Z,39.50
2019-02-17T00:38:20.643Z,37.48
2019-02-17T00:40:50.469Z,42.83
2019-02-17T00:43:20.317Z,42.50
2019-02-17T00:45:50.168Z,40.00
2019-02-17T00:48:19.880Z,38.63
2019-02-17T00:50:49.713Z,43.40
2019-02-17T00:53:19.485Z,45.08
2019-02-17T00:56:00.948Z,41.77
2019-02-17T00:58:30.827Z,39.33
2019-02-17T01:01:00.631Z,34.00
2019-02-17T01:03:30.492Z,42.23
2019-02-17T01:06:00.366Z,39.25
2019-02-17T01:08:30.151Z,41.75
2019-02-17T01:10:59.950Z,40.92
2019-02-17T01:13:29.757Z,40.35
2019-02-17T01:15:59.687Z,44.33
2019-02-17T01:18:29.535Z,41.70
2019-02-17T01:20:59.443Z,41.58
2019-02-17T01:23:29.288Z,38.17
2019-02-17T01:25:59.016Z,37.63
2019-02-17T01:28:28.878Z,38.33
2019-02-17T01:30:58.625Z,38.70
2019-02-17T01:33:28.477Z,38.90
2019-02-17T01:35:58.275Z,36.07
2019-02-17T01:38:28.050Z,35.55
2019-02-17T01:40:57.973Z,38.63
2019-02-17T01:43:27.782Z,37.10
2019-02-17T01:45:57.487Z,34.95
2019-02-17T01:48:27.354Z,37.50
2019-02-17T01:50:57.163Z,35.20
2019-02-17T01:53:26.952Z,42.83
2019-02-17T01:55:56.851Z,38.75
2019-02-17T01:58:26.746Z,37.55
2019-02-17T02:00:56.635Z,40.50
2019-02-17T02:03:26.506Z,40.30
2019-02-17T02:05:56.277Z,39.27
2019-02-17T02:08:26.172Z,33.25
2019-02-17T02:10:56.018Z,38.23
2019-02-17T02:13:25.733Z,36.60
2019-02-17T02:15:55.503Z,35.45
2019-02-17T02:18:25.231Z,36.87
2019-02-17T02:20:56.083Z,38.63
2019-02-17T02:23:26.007Z,38.02
2019-02-17T02:25:55.895Z,35.90
2019-02-17T02:28:25.733Z,36.63
2019-02-17T02:30:55.754Z,37.63
2019-02-17T02:33:25.500Z,37.67
2019-02-17T02:35:56.345Z,39.70
2019-02-17T02:38:26.244Z,38.13
2019-02-17T02:40:56.137Z,38.10
2019-02-17T02:43:26.058Z,38.80
2019-02-17T02:45:55.919Z,36.53
2019-02-17T02:48:25.710Z,37.65
2019-02-17T02:50:55.562Z,37.40
2019-02-17T02:53:25.484Z,38.28
2019-02-17T02:55:55.372Z,35.60
2019-02-17T02:58:25.078Z,37.55
2019-02-17T03:00:54.880Z,37.25
2019-02-17T03:03:24.582Z,40.40
2019-02-17T03:06:17.153Z,34.03
2019-02-17T03:08:46.951Z,38.02
2019-02-17T03:11:16.787Z,33.43
2019-02-17T03:13:46.601Z,35.85
2019-02-17T03:16:16.557Z,34.20
2019-02-17T03:18:46.307Z,34.98
2019-02-17T03:21:16.150Z,32.13
2019-02-17T03:23:46.067Z,35.03
2019-02-17T03:26:15.871Z,36.37
2019-02-17T03:28:45.570Z,31.27
2019-02-17T03:31:15.284Z,35.60
2019-02-17T03:33:44.970Z,35.40
2019-02-17T03:36:14.854Z,32.75
2019-02-17T03:38:44.589Z,33.25
2019-02-17T03:41:14.458Z,32.38
2019-02-17T03:43:44.251Z,31.23
2019-02-17T03:46:14.129Z,30.82
2019-02-17T03:48:43.868Z,33.10
2019-02-17T03:51:13.806Z,30.52
2019-02-17T03:53:43.679Z,33.40
2019-02-17T03:56:13.498Z,32.50
2019-02-17T03:58:43.308Z,30.17
2019-02-17T04:01:13.124Z,31.97
2019-02-17T04:03:42.995Z,32.48
2019-02-17T04:06:12.798Z,30.17
2019-02-17T04:08:42.606Z,36.10
2019-02-17T04:11:12.384Z,31.95
2019-02-17T04:13:42.184Z,32.85
2019-02-17T04:16:12.029Z,31.82
2019-02-17T04:18:41.822Z,35.25
2019-02-17T04:21:11.665Z,31.55
2019-02-17T04:23:41.548Z,29.18
2019-02-17T04:26:11.258Z,34.18
2019-02-17T04:28:41.277Z,32.75
2019-02-17T04:31:11.120Z,31.20
2019-02-17T04:33:40.931Z,30.95
2019-02-17T04:36:10.740Z,32.33
2019-02-17T04:38:40.646Z,32.08
2019-02-17T04:41:10.394Z,33.18
2019-02-17T04:43:40.334Z,35.68
2019-02-17T04:46:10.195Z,34.00
2019-02-17T04:48:40.002Z,36.80
2019-02-17T04:51:09.875Z,35.10
2019-02-17T04:53:39.774Z,30.20
2019-02-17T04:56:09.582Z,32.63
2019-02-17T04:58:39.403Z,33.38
2019-02-17T05:01:09.217Z,36.17
2019-02-17T05:03:39.052Z,36.13
2019-02-17T05:06:08.821Z,34.97
2019-02-17T05:08:38.679Z,35.43
2019-02-17T05:11:09.468Z,33.37
2019-02-17T05:13:39.437Z,32.60
2019-02-17T05:16:09.256Z,30.17
2019-02-17T05:18:39.108Z,35.65
2019-02-17T05:21:08.858Z,35.03
2019-02-17T05:23:38.788Z,32.40
2019-02-17T05:26:08.640Z,30.17
2019-02-17T05:28:38.493Z,31.50
2019-02-17T05:31:08.240Z,31.82
2019-02-17T05:33:38.058Z,29.12
2019-02-17T05:36:07.891Z,31.20
2019-02-17T05:38:37.770Z,34.88
2019-02-17T05:41:07.671Z,33.43
2019-02-17T05:43:37.623Z,33.08
2019-02-17T05:46:07.378Z,31.70
2019-02-17T05:48:37.234Z,35.33
2019-02-17T05:51:07.116Z,35.60
2019-02-17T05:53:36.830Z,32.23
2019-02-17T05:56:06.953Z,33.78
2019-02-17T05:58:36.665Z,34.00
2019-02-17T06:01:07.419Z,30.95
2019-02-17T06:03:37.487Z,34.20
2019-02-17T06:06:07.371Z,30.70
2019-02-17T06:08:37.157Z,31.87
2019-02-17T06:11:07.094Z,30.25
2019-02-17T06:13:36.914Z,30.57
2019-02-17T06:16:06.728Z,29.92
2019-02-17T06:18:36.410Z,33.65
2019-02-17T06:21:06.159Z,31.12
2019-02-17T06:23:35.924Z,32.55
2019-02-17T06:26:05.815Z,28.65
2019-02-17T06:28:35.651Z,32.00
2019-02-17T06:31:13.916Z,31.48
2019-02-17T06:33:36.927Z,28.38
2019-02-17T06:36:06.730Z,32.17
2019-02-17T06:38:36.523Z,32.20
2019-02-17T06:41:06.389Z,29.87
2019-02-17T06:43:36.209Z,34.08
2019-02-17T06:46:06.364Z,32.13
2019-02-17T06:48:36.131Z,34.15
2019-02-17T06:51:06.178Z,33.00
2019-02-17T06:53:35.935Z,34.27
2019-02-17T06:56:24.787Z,32.83
2019-02-17T06:58:54.570Z,35.92
2019-02-17T07:01:25.054Z,33.92
2019-02-17T07:03:55.097Z,32.23
2019-02-17T07:06:34.290Z,32.90
2019-02-17T07:09:04.939Z,28.38
2019-02-17T07:11:34.917Z,34.48
2019-02-17T07:14:04.747Z,33.88
2019-02-17T07:16:34.584Z,32.58
2019-02-17T07:19:04.314Z,33.45
2019-02-17T07:21:34.194Z,35.83
2019-02-17T07:24:04.003Z,33.90
2019-02-17T07:26:33.758Z,34.70
2019-02-17T07:29:03.495Z,33.70
2019-02-17T07:31:35.230Z,32.08
2019-02-17T07:34:04.879Z,33.75
2019-02-17T07:36:34.775Z,33.30
2019-02-17T07:39:05.473Z,31.93
2019-02-17T07:41:35.262Z,31.93
2019-02-17T07:44:05.068Z,28.45
2019-02-17T07:46:35.778Z,29.25
2019-02-17T07:49:05.454Z,33.45
2019-02-17T07:51:35.196Z,31.57
2019-02-17T07:54:04.945Z,34.13
2019-02-17T07:56:34.652Z,34.15
2019-02-17T07:59:04.367Z,33.38
2019-02-17T08:01:34.195Z,31.47
2019-02-17T08:04:03.968Z,33.05
2019-02-17T08:06:33.686Z,29.95
2019-02-17T08:09:04.702Z,32.58
2019-02-17T08:11:34.493Z,49.53
2019-02-17T08:14:04.359Z,68.05
2019-02-17T08:16:34.152Z,57.25
2019-02-17T08:19:03.993Z,47.58
2019-02-17T08:21:33.714Z,37.58
2019-02-17T08:24:03.604Z,33.33
2019-02-17T08:26:34.532Z,35.03
2019-02-17T08:29:04.304Z,33.13
2019-02-17T08:31:34.194Z,31.52
2019-02-17T08:34:03.896Z,30.25
2019-02-17T08:36:33.684Z,30.88
2019-02-17T08:39:05.279Z,30.02
2019-02-17T08:41:36.019Z,26.80
2019-02-17T08:44:05.830Z,30.62
2019-02-17T08:46:35.825Z,32.50
2019-02-17T08:49:05.702Z,29.90
2019-02-17T08:51:35.663Z,31.07
2019-02-17T08:54:05.609Z,29.43
2019-02-17T08:56:35.493Z,30.02
2019-02-17T08:59:05.439Z,27.27
2019-02-17T09:01:35.423Z,28.75
2019-02-17T09:04:05.314Z,27.55
2019-02-17T09:06:35.296Z,28.03
2019-02-17T09:09:06.507Z,29.48
2019-02-17T09:11:36.435Z,26.13
2019-02-17T09:14:06.176Z,27.27
2019-02-17T09:16:36.111Z,27.75
2019-02-17T09:19:06.088Z,29.70
2019-02-17T09:21:35.895Z,28.20
2019-02-17T09:24:05.678Z,27.22
2019-02-17T09:26:35.581Z,26.27
2019-02-17T09:29:05.291Z,27.87
2019-02-17T09:31:35.243Z,32.63
2019-02-17T09:34:05.143Z,32.97
2019-02-17T09:36:35.114Z,31.40
2019-02-17T09:39:08.915Z,33.60
2019-02-17T09:41:38.692Z,29.87
2019-02-17T09:44:09.612Z,30.82
2019-02-17T09:46:39.521Z,30.20
2019-02-17T09:49:09.332Z,32.15
2019-02-17T09:51:39.278Z,33.45
2019-02-17T09:54:09.214Z,32.45
2019-02-17T09:56:39.124Z,53.80
2019-02-17T09:59:08.956Z,33.83
2019-02-17T10:01:38.697Z,31.60
2019-02-17T10:04:08.595Z,32.53
2019-02-17T10:06:38.509Z,34.73
2019-02-17T10:09:08.491Z,32.95
2019-02-17T10:11:38.448Z,34.50
2019-02-17T10:14:08.398Z,34.57
2019-02-17T10:16:39.475Z,36.80
2019-02-17T10:19:09.300Z,39.85
2019-02-17T10:21:39.215Z,36.45
2019-02-17T10:24:09.159Z,38.08
2019-02-17T10:26:38.983Z,38.60
2019-02-17T10:29:08.726Z,38.55
2019-02-17T10:31:39.692Z,37.48
2019-02-17T10:34:09.634Z,36.00
2019-02-17T10:36:39.336Z,37.93
2019-02-17T10:39:09.270Z,37.67
2019-02-17T10:41:40.261Z,35.07
2019-02-17T10:44:10.232Z,36.55
2019-02-17T10:46:40.151Z,35.15
2019-02-17T10:49:10.049Z,38.53
2019-02-17T10:51:40.727Z,39.55
2019-02-17T10:54:10.598Z,37.15
2019-02-17T10:56:40.395Z,35.33
2019-02-17T10:59:10.283Z,38.55
2019-02-17T11:01:40.159Z,36.53
2019-02-17T11:04:11.402Z,39.17
2019-02-17T11:06:41.208Z,38.50
2019-02-17T11:09:23.129Z,38.95
2019-02-17T11:11:53.375Z,37.78
2019-02-17T11:14:23.268Z,36.95
2019-02-17T11:16:53.115Z,37.00
2019-02-17T11:19:22.995Z,34.55
2019-02-17T11:21:52.956Z,39.78
2019-02-17T11:24:22.990Z,41.00
2019-02-17T11:26:52.790Z,40.58
2019-02-17T11:29:22.627Z,37.25
2019-02-17T11:31:52.416Z,40.05
2019-02-17T11:34:22.358Z,40.20
2019-02-17T11:36:52.984Z,34.25
2019-02-17T11:39:22.704Z,36.33
2019-02-17T11:41:52.464Z,38.02
2019-02-17T11:44:22.439Z,37.95
2019-02-17T11:46:52.309Z,39.53
2019-02-17T11:51:16.205Z,37.20
2019-02-17T11:53:46.009Z,39.60
2019-02-17T11:56:15.972Z,38.83
2019-02-17T11:58:45.731Z,39.03
2019-02-17T12:01:15.614Z,41.05
2019-02-17T12:03:45.576Z,40.35
2019-02-17T12:06:15.505Z,37.70
2019-02-17T12:08:49.095Z,40.73
2019-02-17T12:11:18.826Z,41.73
2019-02-17T12:13:48.935Z,39.55
2019-02-17T12:16:18.707Z,39.48
2019-02-17T12:18:48.508Z,39.80
2019-02-17T12:21:37.476Z,41.40
2019-02-17T12:24:11.362Z,42.38
2019-02-17T12:26:50.038Z,39.78
2019-02-17T12:29:28.879Z,42.78
2019-02-17T12:31:58.763Z,42.90
2019-02-17T12:34:28.692Z,41.65
2019-02-17T12:36:58.641Z,42.08
2019-02-17T12:39:28.630Z,47.13
2019-02-17T12:41:58.511Z,38.58
2019-02-17T12:44:28.316Z,39.05
2019-02-17T12:46:58.287Z,41.30
2019-02-17T12:49:28.221Z,41.47
2019-02-17T12:51:57.998Z,40.78
2019-02-17T12:54:29.358Z,43.40
2019-02-17T12:56:59.428Z,42.60
2019-02-17T12:59:29.221Z,39.05
2019-02-17T13:01:59.197Z,42.15
2019-02-17T13:04:29.097Z,41.50
2019-02-17T13:06:58.921Z,42.13
2019-02-17T13:09:28.837Z,39.65
2019-02-17T13:11:58.726Z,41.25
2019-02-17T13:14:28.527Z,39.17
2019-02-17T13:16:58.442Z,76.42
2019-02-17T13:19:28.186Z,41.42
2019-02-17T13:21:58.053Z,38.73
2019-02-17T13:24:27.968Z,43.30
2019-02-17T13:26:57.811Z,40.10
2019-02-17T13:29:27.700Z,40.67
2019-02-17T13:31:57.637Z,39.50
2019-02-17T13:34:27.488Z,49.70
2019-02-17T13:36:57.303Z,36.13
2019-02-17T13:39:27.305Z,71.07
2019-02-17T13:41:57.131Z,44.20
2019-02-17T13:44:26.915Z,36.65
2019-02-17T13:46:56.831Z,39.40
2019-02-17T13:49:26.686Z,39.93
2019-02-17T13:51:56.618Z,42.20
2019-02-17T13:54:27.743Z,41.65
2019-02-17T13:56:57.700Z,33.73
2019-02-17T13:59:27.641Z,38.75
2019-02-17T14:02:00.406Z,27.32
2019-02-17T14:04:30.296Z,26.77
2019-02-17T14:07:00.214Z,28.57
2019-02-17T14:09:31.136Z,26.80
2019-02-17T14:12:01.121Z,30.57
2019-02-17T14:14:31.010Z,28.07
2019-02-17T14:17:00.912Z,29.53
2019-02-17T14:19:30.813Z,30.92
2019-02-17T14:22:01.092Z,31.17
2019-02-17T14:24:30.999Z,31.52
2019-02-17T14:27:00.872Z,23.77
2019-02-17T14:29:30.675Z,23.55
2019-02-17T14:32:00.535Z,25.12
2019-02-17T14:34:30.418Z,24.70
2019-02-17T14:37:00.448Z,24.72
2019-02-17T14:39:30.313Z,23.57
2019-02-17T14:42:00.383Z,19.40
2019-02-17T14:44:30.243Z,23.32
2019-02-17T14:47:00.174Z,22.90
2019-02-17T14:49:29.935Z,23.30
2019-02-17T14:51:59.781Z,21.50
2019-02-17T14:54:30.031Z,21.97
2019-02-17T14:56:59.867Z,22.67
2019-02-17T14:59:29.663Z,29.45
2019-02-17T15:01:59.555Z,31.48
2019-02-17T15:04:29.564Z,31.07
2019-02-17T15:06:59.552Z,28.57
2019-02-17T15:09:29.452Z,27.30
2019-02-17T15:11:59.319Z,27.60
2019-02-17T15:14:29.233Z,30.15
2019-02-17T15:16:59.048Z,28.95
2019-02-17T15:19:28.955Z,28.98
2019-02-17T15:21:58.826Z,30.80
2019-02-17T15:24:28.610Z,34.10
2019-02-17T15:26:58.439Z,28.67
2019-02-17T15:29:28.211Z,30.48
2019-02-17T15:31:58.049Z,30.00
2019-02-17T15:34:27.859Z,28.83
2019-02-17T15:36:57.815Z,27.82
2019-02-17T15:39:27.686Z,33.08
2019-02-17T15:41:57.590Z,30.05
2019-02-17T15:44:27.549Z,34.05
2019-02-17T15:46:57.340Z,32.98
2019-02-17T15:49:27.312Z,30.10
2019-02-17T15:51:57.154Z,29.27
2019-02-17T15:54:27.081Z,30.65
2019-02-17T15:56:56.845Z,31.00
2019-02-17T15:59:38.389Z,29.57
2019-02-17T16:02:08.164Z,29.95
2019-02-17T16:04:37.881Z,31.05
2019-02-17T16:07:07.763Z,31.07
2019-02-17T16:09:37.554Z,36.48
2019-02-17T16:12:07.334Z,32.42
2019-02-17T16:14:37.058Z,36.70
2019-02-17T16:17:06.868Z,30.70
2019-02-17T16:19:36.562Z,34.75
2019-02-17T16:22:06.242Z,38.10
2019-02-17T16:24:36.045Z,28.57
2019-02-17T16:27:05.823Z,32.53
2019-02-17T16:29:35.559Z,32.33
2019-02-17T16:32:05.410Z,30.57
2019-02-17T16:34:38.569Z,31.20
2019-02-17T16:37:06.950Z,35.30
2019-02-17T16:39:36.884Z,30.80
2019-02-17T16:42:08.343Z,31.62
2019-02-17T16:44:38.110Z,30.53
2019-02-17T16:47:08.074Z,30.82
2019-02-17T16:49:39.027Z,34.15
2019-02-17T16:52:08.942Z,34.97
2019-02-17T16:54:40.438Z,31.05
2019-02-17T16:57:10.260Z,28.32
2019-02-17T16:59:40.138Z,28.15
2019-02-17T17:02:10.147Z,28.02
2019-02-17T17:04:48.074Z,30.20
2019-02-17T17:07:11.445Z,86.95
2019-02-17T17:09:41.270Z,46.60
2019-02-17T17:12:11.301Z,36.50
2019-02-17T17:14:41.212Z,30.45
2019-02-17T17:17:10.989Z,29.30
2019-02-17T17:19:40.797Z,31.07
2019-02-17T17:22:10.708Z,37.20
2019-02-17T17:24:40.479Z,43.80
2019-02-17T17:27:10.455Z,48.85
2019-02-17T17:29:40.283Z,43.65
2019-02-17T17:32:10.115Z,47.45
2019-02-17T17:34:39.950Z,52.88
2019-02-17T17:37:09.711Z,40.10
2019-02-17T17:39:39.522Z,40.63
2019-02-17T17:42:09.352Z,41.63
2019-02-17T17:44:39.225Z,38.50
2019-02-17T17:47:11.266Z,44.75
2019-02-17T17:49:40.544Z,40.20
2019-02-17T17:52:10.374Z,41.50
2019-02-17T17:54:40.401Z,36.93
2019-02-17T17:57:10.171Z,38.25
2019-02-17T17:59:40.098Z,44.90
2019-02-17T18:02:10.942Z,41.33
2019-02-17T18:04:40.726Z,39.23
2019-02-17T18:07:10.634Z,42.35
2019-02-17T18:09:40.490Z,37.80
2019-02-17T18:12:10.279Z,36.35
2019-02-17T18:14:40.164Z,37.73
2019-02-17T18:17:09.863Z,36.03
2019-02-17T18:19:39.611Z,34.33
2019-02-17T18:22:09.303Z,38.40
2019-02-17T18:24:39.086Z,34.60
2019-02-17T18:27:08.914Z,35.17
2019-02-17T18:29:38.685Z,37.83
2019-02-17T18:32:08.483Z,34.85
2019-02-17T18:34:38.342Z,32.70
2019-02-17T18:37:08.299Z,35.38
2019-02-17T18:39:38.239Z,37.95
2019-02-17T18:42:08.050Z,34.75
2019-02-17T18:44:37.955Z,33.30
2019-02-17T18:47:07.941Z,37.00
2019-02-17T18:49:37.858Z,32.75
2019-02-17T18:52:07.777Z,31.73
2019-02-17T18:54:38.914Z,32.50
2019-02-17T18:57:08.835Z,33.92
2019-02-17T18:59:38.566Z,39.63
2019-02-17T19:02:08.539Z,49.85
2019-02-17T19:04:38.470Z,46.40
2019-02-17T19:07:08.246Z,89.85
2019-02-17T19:09:38.041Z,64.45
2019-02-17T19:12:07.983Z,88.00
2019-02-17T19:14:38.135Z,75.45
2019-02-17T19:17:07.888Z,60.87
2019-02-17T19:19:37.701Z,40.92
2019-02-17T19:22:07.419Z,32.08
2019-02-17T19:24:37.195Z,29.60
2019-02-17T19:27:06.992Z,28.55
2019-02-17T19:29:36.743Z,28.07
2019-02-17T19:32:06.556Z,27.82
2019-02-17T19:34:36.381Z,30.05
2019-02-17T19:37:06.158Z,33.25
2019-02-17T19:39:36.020Z,29.12
2019-02-17T19:42:05.895Z,31.00
2019-02-17T19:44:35.640Z,30.30
2019-02-17T19:47:05.426Z,32.03
2019-02-17T19:49:35.202Z,29.25
2019-02-17T19:52:04.882Z,32.83
2019-02-17T19:54:34.682Z,32.83
2019-02-17T19:57:04.497Z,77.17
2019-02-17T19:59:35.330Z,47.20
2019-02-17T20:02:05.250Z,97.50
2019-02-17T20:04:53.989Z,39.67
2019-02-17T20:07:23.814Z,59.83
2019-02-17T20:09:53.597Z,48.13
2019-02-17T20:12:23.382Z,41.93
2019-02-17T20:14:53.374Z,39.78
2019-02-17T20:17:23.237Z,35.33
2019-02-17T20:19:53.084Z,33.10
2019-02-17T20:22:22.835Z,37.17
2019-02-17T20:24:52.615Z,34.95
2019-02-17T20:27:22.447Z,35.15
2019-02-17T20:29:52.291Z,33.90
2019-02-17T20:32:22.227Z,34.20
2019-02-17T20:34:52.098Z,30.82
2019-02-17T20:37:21.966Z,31.97
2019-02-17T20:39:51.774Z,33.73
2019-02-17T20:42:21.662Z,29.48
2019-02-17T20:44:51.511Z,33.17
2019-02-17T20:47:21.337Z,32.98
2019-02-17T20:49:52.186Z,34.05
2019-02-17T20:52:21.950Z,38.70
2019-02-17T20:54:51.735Z,35.90
2019-02-17T20:57:22.414Z,36.23
2019-02-17T20:59:52.422Z,35.30
2019-02-17T21:02:22.345Z,31.73
2019-02-17T21:04:52.247Z,33.43
2019-02-17T21:07:22.096Z,36.85
2019-02-17T21:09:51.903Z,37.90
2019-02-17T21:12:22.951Z,38.58
2019-02-17T21:14:52.692Z,36.50
2019-02-17T21:17:22.516Z,36.00
2019-02-17T21:19:52.374Z,36.80
2019-02-17T21:22:22.259Z,37.43
2019-02-17T21:24:52.106Z,42.35
2019-02-17T21:27:22.097Z,35.70
2019-02-17T21:29:51.802Z,44.55
2019-02-17T21:32:21.871Z,45.12
2019-02-17T21:34:51.726Z,39.53
2019-02-17T21:37:21.621Z,45.70
2019-02-17T21:39:51.450Z,41.63
2019-02-17T21:42:21.204Z,40.05
2019-02-17T21:44:51.067Z,37.17
2019-02-17T21:47:20.822Z,36.65
2019-02-17T21:49:50.781Z,38.35
2019-02-17T21:52:20.502Z,36.58
2019-02-17T21:54:50.166Z,36.80
2019-02-17T21:57:20.052Z,52.70
2019-02-17T21:59:49.872Z,119.82
2019-02-17T22:02:19.798Z,177.10
2019-02-17T22:04:49.598Z,95.50
2019-02-17T22:07:19.326Z,92.22
2019-02-17T22:09:49.071Z,77.25
2019-02-17T22:12:18.940Z,53.05
2019-02-17T22:14:48.723Z,60.17
2019-02-17T22:17:18.600Z,42.73
2019-02-17T22:19:48.302Z,38.73
2019-02-17T22:22:19.113Z,39.05
2019-02-17T22:24:49.035Z,38.20
2019-02-17T22:27:19.126Z,40.50
2019-02-17T22:29:48.846Z,38.70
2019-02-17T22:32:18.607Z,41.05
2019-02-17T22:34:48.526Z,38.83
2019-02-17T22:37:18.371Z,39.18
2019-02-17T22:39:48.106Z,43.58
2019-02-17T22:42:17.834Z,40.93
2019-02-17T22:44:47.562Z,38.42
2019-02-17T22:47:17.603Z,37.65
2019-02-17T22:49:47.302Z,42.15
2019-02-17T22:52:17.086Z,35.33
2019-02-17T22:54:47.009Z,35.80
2019-02-17T22:57:16.851Z,34.75
2019-02-17T22:59:47.529Z,39.23
2019-02-17T23:02:17.570Z,37.88
2019-02-17T23:04:47.371Z,36.40
2019-02-17T23:07:17.298Z,39.20
2019-02-17T23:09:47.105Z,38.90
2019-02-17T23:12:17.920Z,38.15
2019-02-17T23:14:47.727Z,38.48
2019-02-17T23:17:17.576Z,41.70
2019-02-17T23:19:47.503Z,40.25
2019-02-17T23:22:17.289Z,39.83
2019-02-17T23:24:47.104Z,39.45
2019-02-17T23:27:17.011Z,37.35
2019-02-17T23:29:46.795Z,40.05
2019-02-17T23:32:16.592Z,35.98
2019-02-17T23:34:46.336Z,36.97
2019-02-17T23:37:16.260Z,36.95
2019-02-17T23:39:46.030Z,36.30
2019-02-17T23:42:15.833Z,37.60
2019-02-17T23:44:45.627Z,37.00
2019-02-17T23:47:15.588Z,33.15
2019-02-17T23:49:45.415Z,34.05
2019-02-17T23:52:15.307Z,33.70
2019-02-17T23:54:45.071Z,33.30
2019-02-17T23:57:14.798Z,38.10
2019-02-17T23:59:44.604Z,32.15
